Time;durP1;ratioP1;P1;durP2;ratioP2;P2;SDS_P1;SDS_P2;PMS_P1;PMS_P2;Temp;Humidity;BMP_temperature;BMP_pressure;BME280_temperature;BME280_humidity;BME280_pressure;Samples;Min_cycle;Max_cycle;Signal;HPM_P1;HPM_P2
2023/06/27 00:00:25;;;;;;;10.45;3.90;;;;;;;16.56;71.23;101944.97;4975963;28;20035;-54
2023/06/27 00:02:53;;;;;;;10.93;3.88;;;;;;;16.54;71.59;101939.69;4975704;28;20031;-54
2023/06/27 00:05:19;;;;;;;9.00;3.70;;;;;;;16.47;72.20;101941.31;4974160;28;20060;-54
2023/06/27 00:07:44;;;;;;;9.45;3.60;;;;;;;16.45;71.61;101942.13;4982418;28;20030;-54
2023/06/27 00:10:11;;;;;;;8.32;3.47;;;;;;;16.41;72.08;101941.22;4981955;28;20050;-54
2023/06/27 00:12:36;;;;;;;8.38;3.80;;;;;;;16.40;71.38;101941.19;4974904;28;20061;-53
2023/06/27 00:15:06;;;;;;;8.45;4.00;;;;;;;16.41;72.28;101942.94;4975125;28;20030;-54
2023/06/27 00:17:35;;;;;;;10.35;3.85;;;;;;;16.41;72.32;101946.47;4981699;28;20765;-54
2023/06/27 00:20:02;;;;;;;10.15;4.47;;;;;;;16.40;72.46;101947.31;4975458;28;20030;-54
2023/06/27 00:22:27;;;;;;;8.32;4.20;;;;;;;16.39;72.40;101932.38;4981317;28;20031;-54
2023/06/27 00:24:53;;;;;;;9.50;3.80;;;;;;;16.36;69.25;101939.34;4981009;28;20769;-54
2023/06/27 00:27:19;;;;;;;8.50;3.80;;;;;;;16.34;72.72;101945.47;4973870;28;20030;-54
2023/06/27 00:29:44;;;;;;;7.53;3.67;;;;;;;16.32;73.00;101949.81;4962999;28;20705;-54
2023/06/27 00:32:10;;;;;;;7.57;3.63;;;;;;;16.30;71.44;101948.03;4980642;28;20081;-53
2023/06/27 00:34:35;;;;;;;8.90;4.07;;;;;;;16.29;72.91;101947.16;4980531;28;20077;-54
2023/06/27 00:37:00;;;;;;;9.18;4.03;;;;;;;16.27;72.43;101942.72;4975299;28;20399;-54
2023/06/27 00:39:26;;;;;;;7.90;3.67;;;;;;;16.26;70.03;101940.94;4966681;28;20237;-54
2023/06/27 00:41:54;;;;;;;10.30;3.78;;;;;;;16.28;72.09;101939.19;4984766;28;20064;-54
2023/06/27 00:44:19;;;;;;;9.50;3.88;;;;;;;16.27;71.63;101932.19;4980495;28;20030;-54
2023/06/27 00:46:47;;;;;;;9.68;3.97;;;;;;;16.29;72.74;101930.47;4961965;28;20033;-54
2023/06/27 00:49:15;;;;;;;9.15;4.13;;;;;;;16.25;70.79;101936.53;4973846;28;20490;-53
2023/06/27 00:51:42;;;;;;;13.57;4.00;;;;;;;16.24;72.77;101940.91;4974893;28;20038;-54
2023/06/27 00:54:08;;;;;;;9.75;4.03;;;;;;;16.18;73.14;101943.44;4973176;28;20227;-54
2023/06/27 00:56:35;;;;;;;8.15;4.32;;;;;;;16.18;71.72;101943.44;4974523;28;20041;-53
2023/06/27 00:59:01;;;;;;;10.10;4.00;;;;;;;16.21;73.39;101942.63;4981252;28;20030;-53
2023/06/27 01:01:29;;;;;;;7.95;4.10;;;;;;;16.25;72.78;101944.41;4981046;28;20082;-54
2023/06/27 01:03:54;;;;;;;11.00;4.50;;;;;;;16.21;73.13;101947.88;4963260;28;20485;-54
2023/06/27 01:06:53;;;;;;;11.35;4.30;;;;;;;16.18;72.26;101943.44;4980928;28;20716;-53
2023/06/27 01:09:33;;;;;;;8.47;3.83;;;;;;;16.21;71.70;101947.88;4973771;28;20037;-54
2023/06/27 01:12:21;;;;;;;8.70;3.78;;;;;;;16.17;71.54;101953.03;4980963;28;20022;-54
2023/06/27 01:14:49;;;;;;;7.53;3.72;;;;;;;16.17;73.39;101947.78;4975015;28;20077;-54
2023/06/27 01:17:16;;;;;;;10.07;4.50;;;;;;;16.15;73.74;101948.66;4980997;28;20026;-54
2023/06/27 01:19:44;;;;;;;10.88;3.67;;;;;;;16.12;73.71;101946.84;4970668;28;20031;-54
2023/06/27 01:22:15;;;;;;;7.78;3.67;;;;;;;16.15;73.81;101944.25;4977688;28;20092;-54
2023/06/27 01:24:40;;;;;;;9.07;4.30;;;;;;;16.13;73.58;101939.81;4976749;28;20113;-53
2023/06/27 01:27:06;;;;;;;8.75;3.83;;;;;;;16.06;73.82;101944.09;4977828;28;20422;-54
2023/06/27 01:29:32;;;;;;;9.95;4.13;;;;;;;16.03;74.46;101941.38;4972932;28;20037;-54
2023/06/27 01:32:24;;;;;;;11.20;4.07;;;;;;;15.98;73.59;101950.94;4974862;28;20026;-52
2023/06/27 01:35:02;;;;;;;9.73;4.32;;;;;;;15.95;73.92;101943.88;4975678;28;20030;-54
2023/06/27 01:37:31;;;;;;;8.90;4.20;;;;;;;15.95;74.72;101950.91;4973479;28;20050;-53
2023/06/27 01:40:02;;;;;;;9.25;4.30;;;;;;;15.96;74.65;101945.66;4975025;28;20345;-54
2023/06/27 01:42:33;;;;;;;7.95;4.00;;;;;;;15.97;75.04;101951.78;4965080;28;20394;-54
2023/06/27 01:44:59;;;;;;;6.68;3.70;;;;;;;15.96;75.03;101952.66;4966544;28;20544;-54
2023/06/27 01:47:25;;;;;;;9.35;4.30;;;;;;;15.94;74.57;101950.00;4972112;28;20786;-54
2023/06/27 01:49:50;;;;;;;10.85;4.10;;;;;;;15.95;75.13;101943.00;4962197;28;20077;-54
2023/06/27 01:52:16;;;;;;;9.10;4.15;;;;;;;15.92;75.50;101943.81;4973982;28;20030;-54
2023/06/27 01:54:43;;;;;;;12.48;4.40;;;;;;;15.90;75.00;101935.03;4960466;28;20563;-54
2023/06/27 01:57:09;;;;;;;10.40;4.28;;;;;;;15.84;75.23;101936.66;4973007;28;20062;-54
2023/06/27 01:59:34;;;;;;;8.10;3.95;;;;;;;15.80;74.37;101938.31;4976517;28;20083;-54
2023/06/27 02:02:00;;;;;;;8.50;4.03;;;;;;;15.81;75.71;101938.38;4977099;28;20525;-54
2023/06/27 02:04:25;;;;;;;9.32;4.50;;;;;;;15.78;75.41;101943.53;4972545;28;20038;-54
2023/06/27 02:06:50;;;;;;;11.18;3.75;;;;;;;15.75;75.73;101930.31;4975652;28;20061;-54
2023/06/27 02:09:16;;;;;;;9.25;3.88;;;;;;;15.71;75.36;101931.09;4973240;28;20173;-53
2023/06/27 02:11:41;;;;;;;7.20;3.80;;;;;;;15.72;76.05;101927.63;4973374;28;20027;-54
2023/06/27 02:14:06;;;;;;;7.13;3.83;;;;;;;15.71;73.77;101925.84;4974053;28;20058;-53
2023/06/27 02:16:32;;;;;;;9.80;4.32;;;;;;;15.68;76.82;101927.56;4979286;28;20043;-53
2023/06/27 02:18:57;;;;;;;7.50;4.13;;;;;;;15.64;77.15;101932.75;4978628;28;20031;-54
2023/06/27 02:21:22;;;;;;;9.90;4.05;;;;;;;15.68;74.67;101922.28;4961938;28;20058;-54
2023/06/27 02:23:48;;;;;;;10.50;4.00;;;;;;;15.70;77.22;101923.19;4979987;28;20058;-54
2023/06/27 02:26:13;;;;;;;7.75;4.47;;;;;;;15.65;76.54;101924.00;4979104;28;20041;-54
2023/06/27 02:28:38;;;;;;;9.68;3.83;;;;;;;15.67;76.56;101920.50;4979520;28;20545;-54
2023/06/27 02:31:04;;;;;;;9.35;3.97;;;;;;;15.70;75.87;101923.19;4978626;28;20101;-54
2023/06/27 02:33:29;;;;;;;14.20;4.90;;;;;;;15.73;76.09;101925.88;4972675;28;20053;-54
2023/06/27 02:35:54;;;;;;;10.48;4.10;;;;;;;15.71;76.85;101915.34;4979115;28;20396;-54
2023/06/27 02:38:19;;;;;;;11.38;4.43;;;;;;;15.69;76.91;101916.19;4977081;28;20261;-54
2023/06/27 02:40:45;;;;;;;10.35;3.97;;;;;;;15.68;77.09;101914.41;4962959;28;20059;-54
2023/06/27 02:43:10;;;;;;;10.10;4.32;;;;;;;15.63;77.40;101914.31;4969645;28;20060;-54
2023/06/27 02:45:36;;;;;;;11.88;4.32;;;;;;;15.65;77.76;101909.97;4973736;28;20595;-54
2023/06/27 02:48:01;;;;;;;12.48;4.10;;;;;;;15.64;77.48;101916.06;4978792;28;20031;-54
2023/06/27 02:50:26;;;;;;;9.60;3.85;;;;;;;15.63;78.28;101920.47;4972179;28;20125;-54
2023/06/27 02:52:52;;;;;;;11.10;4.32;;;;;;;15.58;77.67;101924.75;4979094;28;20170;-54
2023/06/27 02:55:17;;;;;;;11.27;4.13;;;;;;;15.59;78.06;101917.75;4972327;28;20442;-54
2023/06/27 02:57:42;;;;;;;8.23;4.63;;;;;;;15.55;77.30;101913.28;4977960;28;20034;-54
2023/06/27 03:00:09;;;;;;;8.80;4.38;;;;;;;15.50;75.32;101914.91;4977402;28;20033;-53
2023/06/27 03:02:35;;;;;;;9.18;4.10;;;;;;;15.47;78.26;101916.63;4972461;28;20856;-55
2023/06/27 03:05:00;;;;;;;7.57;3.97;;;;;;;15.50;77.95;101917.53;4978647;28;20105;-54
2023/06/27 03:07:25;;;;;;;12.50;4.43;;;;;;;15.45;78.45;101928.88;4972627;28;20076;-53
2023/06/27 03:09:51;;;;;;;13.23;4.35;;;;;;;15.43;78.64;101924.44;4978080;28;20030;-54
2023/06/27 03:12:16;;;;;;;10.10;4.10;;;;;;;15.39;78.46;101922.59;4972064;28;20041;-54
2023/06/27 03:14:41;;;;;;;8.60;4.10;;;;;;;15.34;79.29;101919.88;4978927;28;20098;-54
2023/06/27 03:17:07;;;;;;;8.40;3.97;;;;;;;15.34;78.98;101925.13;4972639;28;20027;-54
2023/06/27 03:19:32;;;;;;;12.95;4.70;;;;;;;15.32;79.49;101933.81;4977065;28;20046;-54
2023/06/27 03:21:57;;;;;;;9.98;4.18;;;;;;;15.32;79.14;101932.06;4971873;28;20035;-54
2023/06/27 03:24:22;;;;;;;10.00;4.45;;;;;;;15.27;80.39;101928.47;4975569;28;20027;-54
2023/06/27 03:26:48;;;;;;;10.18;3.97;;;;;;;15.27;80.26;101923.22;4974211;28;20060;-54
2023/06/27 03:29:13;;;;;;;10.77;4.20;;;;;;;15.27;79.90;101925.84;4971528;28;20390;-54
2023/06/27 03:31:38;;;;;;;7.90;3.97;;;;;;;15.28;79.06;101919.75;4972332;28;20030;-54
2023/06/27 03:34:04;;;;;;;7.20;3.75;;;;;;;15.27;78.33;101923.22;4960300;28;20031;-54
2023/06/27 03:36:33;;;;;;;11.77;4.45;;;;;;;15.30;79.04;101923.28;4979537;28;20042;-54
2023/06/27 03:38:58;;;;;;;12.80;5.03;;;;;;;15.29;79.76;101922.41;4975215;28;20058;-53
2023/06/27 03:41:24;;;;;;;9.15;4.18;;;;;;;15.27;79.44;101924.09;4974543;28;20053;-54
2023/06/27 03:43:49;;;;;;;9.73;4.18;;;;;;;15.28;79.60;101925.88;4982216;28;20034;-54
2023/06/27 03:46:15;;;;;;;11.02;4.28;;;;;;;15.30;79.61;101931.16;4974416;28;20513;-54
2023/06/27 03:48:40;;;;;;;13.05;4.88;;;;;;;15.26;80.26;101921.44;4953787;28;20031;-55
2023/06/27 03:51:05;;;;;;;9.88;4.55;;;;;;;15.26;80.56;101926.69;4971553;28;20530;-54
2023/06/27 03:53:30;;;;;;;9.43;4.43;;;;;;;15.22;80.59;101933.63;4981720;28;20462;-54
2023/06/27 03:55:56;;;;;;;9.13;4.57;;;;;;;15.16;80.88;101929.97;4977068;28;20027;-54
2023/06/27 03:58:21;;;;;;;9.00;4.38;;;;;;;15.12;81.51;101922.03;4978832;28;20033;-54
2023/06/27 04:00:47;;;;;;;8.93;4.45;;;;;;;15.11;81.53;101933.38;4976615;28;20037;-54
2023/06/27 04:03:12;;;;;;;12.10;4.32;;;;;;;15.17;80.46;101932.63;4983519;28;20034;-54
2023/06/27 04:05:37;;;;;;;9.07;4.15;;;;;;;15.17;81.39;101937.00;4973808;28;20034;-54
2023/06/27 04:08:03;;;;;;;9.50;4.43;;;;;;;15.16;81.40;101929.97;4975899;28;20118;-54
2023/06/27 04:10:28;;;;;;;9.38;4.50;;;;;;;15.17;81.48;101935.25;4956839;28;20466;-54
2023/06/27 04:12:54;;;;;;;12.90;5.00;;;;;;;15.15;81.81;101928.19;4980523;28;20027;-54
2023/06/27 04:15:19;;;;;;;10.48;4.30;;;;;;;15.12;82.41;101932.53;4974864;28;20046;-54
2023/06/27 04:17:45;;;;;;;13.68;4.85;;;;;;;15.11;82.66;101929.88;4980751;28;20422;-54
2023/06/27 04:20:11;;;;;;;12.32;4.82;;;;;;;15.04;82.78;101926.19;4968070;28;20030;-54
2023/06/27 04:22:37;;;;;;;12.13;4.88;;;;;;;15.02;83.10;101927.91;4973231;28;20568;-54
2023/06/27 04:25:02;;;;;;;12.10;4.93;;;;;;;15.02;82.39;101925.28;4974565;28;20109;-54
2023/06/27 04:27:28;;;;;;;8.80;4.07;;;;;;;15.05;80.83;101925.38;4974583;28;20429;-54
2023/06/27 04:29:53;;;;;;;12.15;4.72;;;;;;;15.05;81.77;101928.00;4979579;28;20050;-53
2023/06/27 04:32:18;;;;;;;12.35;4.75;;;;;;;15.03;82.70;101928.78;4979552;28;20038;-54
2023/06/27 04:34:44;;;;;;;10.00;4.70;;;;;;;15.00;82.18;101928.72;4976488;28;20513;-54
2023/06/27 04:37:09;;;;;;;10.75;4.72;;;;;;;14.98;83.23;101935.69;4968551;28;20049;-53
2023/06/27 04:39:34;;;;;;;9.20;5.18;;;;;;;14.99;83.25;101938.34;4977175;28;20036;-54
2023/06/27 04:41:59;;;;;;;12.82;4.60;;;;;;;15.00;83.73;101940.09;4970066;28;20030;-54
2023/06/27 04:44:25;;;;;;;9.23;4.85;;;;;;;15.00;83.54;101937.47;4977988;28;20511;-54
2023/06/27 04:46:51;;;;;;;9.98;4.82;;;;;;;14.95;84.06;101941.75;4953585;28;20557;-54
2023/06/27 04:49:16;;;;;;;12.60;5.28;;;;;;;14.91;84.29;101937.28;4979648;28;20714;-54
2023/06/27 04:51:41;;;;;;;17.50;5.53;;;;;;;14.91;84.34;101939.91;4980715;28;20027;-54
2023/06/27 04:54:07;;;;;;;9.35;4.90;;;;;;;14.88;84.52;101945.09;4974244;28;20033;-54
2023/06/27 04:56:33;;;;;;;11.32;5.40;;;;;;;14.91;84.16;101946.03;4979718;28;20043;-53
2023/06/27 04:58:59;;;;;;;11.85;5.30;;;;;;;14.92;83.73;101949.56;4973926;28;20034;-54
2023/06/27 05:01:24;;;;;;;12.02;5.43;;;;;;;14.95;84.51;101947.00;4977749;28;20057;-54
2023/06/27 05:03:50;;;;;;;10.77;4.82;;;;;;;14.88;84.44;101955.59;4975634;28;20132;-54
2023/06/27 05:06:16;;;;;;;12.60;5.18;;;;;;;14.85;84.19;101948.53;4980662;28;20026;-54
2023/06/27 05:08:41;;;;;;;11.95;5.90;;;;;;;14.84;85.62;101948.47;4979610;28;20409;-54
2023/06/27 05:11:06;;;;;;;12.68;5.15;;;;;;;14.86;85.21;101949.41;4979846;28;20030;-54
2023/06/27 05:13:32;;;;;;;14.18;5.57;;;;;;;14.87;84.13;101953.81;4974156;28;20034;-54
2023/06/27 05:15:57;;;;;;;10.63;4.75;;;;;;;14.93;85.47;101956.56;4981244;28;20030;-54
2023/06/27 05:18:24;;;;;;;13.45;5.78;;;;;;;14.96;86.32;101954.00;4972666;28;20097;-54
2023/06/27 05:20:49;;;;;;;12.25;5.70;;;;;;;14.99;86.37;101954.09;4980687;28;20109;-54
2023/06/27 05:23:15;;;;;;;12.10;6.00;;;;;;;15.05;86.78;101943.75;4960981;28;20746;-54
2023/06/27 05:25:40;;;;;;;11.98;5.57;;;;;;;15.11;86.70;101938.63;4975666;28;20046;-54
2023/06/27 05:28:05;;;;;;;12.23;6.50;;;;;;;15.19;86.95;101945.78;4972277;28;20034;-54
2023/06/27 05:30:32;;;;;;;13.20;5.93;;;;;;;15.25;86.85;101951.16;4971654;28;20027;-54
2023/06/27 05:32:58;;;;;;;12.18;5.93;;;;;;;15.29;87.25;101942.50;5131516;23;20110;-54
2023/06/27 05:35:23;;;;;;;13.73;5.85;;;;;;;15.35;87.82;101945.28;4996468;28;20498;-54
2023/06/27 05:37:49;;;;;;;11.52;5.72;;;;;;;15.38;88.57;101947.06;4997029;28;20032;-54
2023/06/27 05:40:15;;;;;;;15.68;6.00;;;;;;;15.44;88.68;101950.72;4997059;28;20049;-54
2023/06/27 05:42:40;;;;;;;10.38;6.07;;;;;;;15.51;88.52;101956.09;4996861;28;20026;-54
2023/06/27 05:45:06;;;;;;;18.00;6.63;;;;;;;15.54;88.92;101953.53;4996227;28;20104;-54
2023/06/27 05:47:32;;;;;;;13.43;6.80;;;;;;;15.62;88.73;101944.94;4997981;28;20063;-54
2023/06/27 05:49:57;;;;;;;16.17;5.88;;;;;;;15.61;88.38;101948.44;4996748;28;20553;-54
2023/06/27 05:52:23;;;;;;;14.63;6.50;;;;;;;15.65;88.61;101946.75;4996881;28;20434;-55
2023/06/27 05:54:49;;;;;;;15.80;6.35;;;;;;;15.67;88.47;101939.81;4996276;28;20096;-54
2023/06/27 05:57:15;;;;;;;12.48;6.28;;;;;;;15.66;88.31;101948.53;4997246;28;20044;-53
2023/06/27 05:59:40;;;;;;;16.92;6.60;;;;;;;15.70;88.63;101954.72;4996835;28;20030;-55
2023/06/27 06:02:06;;;;;;;11.50;6.30;;;;;;;15.73;88.44;101953.06;4997223;28;20393;-54
2023/06/27 06:04:31;;;;;;;12.82;6.50;;;;;;;15.76;89.13;101947.88;4997224;28;20034;-54
2023/06/27 06:06:58;;;;;;;15.63;6.63;;;;;;;15.85;88.55;101948.94;4997565;28;20022;-55
2023/06/27 06:09:24;;;;;;;17.85;7.10;;;;;;;15.97;89.08;101947.44;4995456;28;20080;-53
2023/06/27 06:11:49;;;;;;;14.55;7.00;;;;;;;16.10;88.88;101945.03;4997063;28;20101;-54
2023/06/27 06:14:15;;;;;;;15.13;7.28;;;;;;;16.16;88.65;101943.41;4996420;28;20032;-52
2023/06/27 06:16:41;;;;;;;15.35;7.43;;;;;;;16.27;88.20;101946.22;4997894;28;20021;-54
2023/06/27 06:19:07;;;;;;;11.73;6.35;;;;;;;16.28;87.75;101948.00;4996097;28;20480;-54
2023/06/27 06:21:33;;;;;;;14.40;7.32;;;;;;;16.36;88.92;101952.50;4996097;28;20042;-54
2023/06/27 06:23:58;;;;;;;17.17;7.65;;;;;;;16.44;88.69;101946.53;4996524;28;20077;-54
2023/06/27 06:26:23;;;;;;;15.52;7.00;;;;;;;16.59;88.59;101947.63;4996778;28;20397;-54
2023/06/27 06:28:49;;;;;;;13.95;6.43;;;;;;;16.65;88.25;101945.97;4996672;28;20381;-54
2023/06/27 06:31:18;;;;;;;12.93;7.07;;;;;;;16.78;87.50;101946.19;4996379;28;20899;-55
2023/06/27 06:33:47;;;;;;;;;;;;;;;16.86;86.79;101953.34;4994920;28;20061;-55
2023/06/27 06:36:12;;;;;;;11.98;6.63;;;;;;;16.93;87.37;101957.00;4994858;28;20016;-55
2023/06/27 06:38:38;;;;;;;16.13;7.43;;;;;;;16.99;86.84;101950.94;4989711;28;20455;-55
2023/06/27 06:41:04;;;;;;;17.95;7.70;;;;;;;17.08;88.12;101958.97;5012888;23;20582;-96
2023/06/27 06:43:32;;;;;;;14.75;7.22;;;;;;;17.20;87.13;101961.75;4978430;28;20034;-96
2023/06/27 06:46:01;;;;;;;16.23;7.03;;;;;;;17.34;85.33;101959.31;4971287;28;20026;-96
2023/06/27 06:50:56;;;;;;;12.85;6.82;;;;;;;17.54;84.10;101970.13;4981374;28;20057;-55
2023/06/27 06:53:22;;;;;;;16.17;6.10;;;;;;;17.64;82.40;101968.50;4985553;28;20034;-55
2023/06/27 06:55:47;;;;;;;14.70;6.57;;;;;;;17.65;83.36;101964.09;4984506;28;20097;-55
2023/06/27 06:58:13;;;;;;;11.98;6.88;;;;;;;17.70;84.07;101967.69;4985693;28;20117;-55
2023/06/27 07:00:38;;;;;;;14.98;7.20;;;;;;;17.81;84.46;101963.41;4981915;28;20030;-54
2023/06/27 07:03:04;;;;;;;12.93;7.45;;;;;;;17.94;83.17;101969.75;4986286;28;20030;-55
2023/06/27 07:05:30;;;;;;;14.90;6.63;;;;;;;18.04;81.75;101973.38;4985797;28;20117;-55
2023/06/27 07:07:55;;;;;;;13.00;5.93;;;;;;;18.11;82.15;101964.66;4985523;28;20113;-55
2023/06/27 07:10:21;;;;;;;13.25;7.22;;;;;;;18.23;82.12;101963.88;4983453;28;20469;-55
2023/06/27 07:12:46;;;;;;;14.77;6.53;;;;;;;18.35;82.07;101973.66;4988876;28;20036;-55
2023/06/27 07:15:11;;;;;;;10.98;6.75;;;;;;;18.45;82.45;101972.91;4988907;28;20105;-55
2023/06/27 07:17:37;;;;;;;13.52;6.40;;;;;;;18.58;79.82;101969.50;4987182;28;20437;-57
2023/06/27 07:20:04;;;;;;;14.18;6.80;;;;;;;18.68;80.43;101973.06;4987726;28;20124;-56
2023/06/27 07:22:29;;;;;;;12.68;5.70;;;;;;;18.83;77.17;101977.63;4989002;28;20096;-55
2023/06/27 07:24:54;;;;;;;8.63;5.38;;;;;;;18.91;76.06;101968.00;4989449;28;20034;-56
2023/06/27 07:27:20;;;;;;;10.43;4.90;;;;;;;19.01;76.30;101976.00;4988388;28;20526;-56
2023/06/27 07:29:45;;;;;;;10.60;5.40;;;;;;;19.08;75.87;101967.25;4988636;28;20502;-55
2023/06/27 07:32:11;;;;;;;8.88;5.53;;;;;;;19.18;75.22;101969.06;4988349;28;20045;-55
2023/06/27 07:34:37;;;;;;;11.38;5.40;;;;;;;19.21;74.54;101966.44;4989891;28;20046;-56
2023/06/27 07:37:03;;;;;;;9.43;5.50;;;;;;;19.37;75.18;101964.78;4990140;28;20026;-56
2023/06/27 07:39:28;;;;;;;12.50;4.97;;;;;;;19.59;73.13;101963.09;4987669;28;20742;-56
2023/06/27 07:41:53;;;;;;;10.40;4.63;;;;;;;19.67;70.89;101957.84;4987766;28;20065;-56
2023/06/27 07:44:19;;;;;;;10.43;4.20;;;;;;;19.71;69.70;101953.44;4988628;28;20101;-56
2023/06/27 07:46:44;;;;;;;11.98;4.60;;;;;;;19.71;69.55;101970.22;4968291;28;20123;-55
2023/06/27 07:49:10;;;;;;;7.32;3.47;;;;;;;19.62;68.35;101965.78;4976470;28;20125;-56
2023/06/27 07:51:35;;;;;;;11.50;3.88;;;;;;;19.58;70.70;101966.63;4978665;28;20030;-56
2023/06/27 07:54:02;;;;;;;10.15;4.10;;;;;;;19.58;70.92;101969.28;4977575;28;20069;-56
2023/06/27 07:56:28;;;;;;;8.80;3.85;;;;;;;19.56;70.54;101971.03;4975550;28;20038;-56
2023/06/27 07:58:59;;;;;;;9.20;3.80;;;;;;;19.59;69.98;101959.59;5021939;23;20522;-95
2023/06/27 08:01:30;;;;;;;8.63;3.38;;;;;;;19.57;70.82;101961.34;4976858;28;20042;-96
2023/06/27 08:04:05;;;;;;;8.90;3.40;;;;;;;19.55;70.92;101963.09;4979821;28;20089;-96
2023/06/27 08:06:51;;;;;;;;;;;;;;;;;;;;;
2023/06/27 08:09:17;;;;;;;5.97;2.65;;;;;;;19.70;67.80;101963.16;5010462;23;20048;-54
2023/06/27 08:11:42;;;;;;;7.70;2.70;;;;;;;19.76;65.70;101963.16;4986295;28;20034;-56
2023/06/27 08:14:08;;;;;;;5.30;2.50;;;;;;;19.82;66.53;101972.06;4998524;28;20033;-56
2023/06/27 08:16:33;;;;;;;6.07;2.60;;;;;;;19.87;67.10;101968.53;4997963;28;20097;-56
2023/06/27 08:18:59;;;;;;;6.70;3.00;;;;;;;19.92;65.89;101963.25;4998143;28;20034;-56
2023/06/27 08:21:30;;;;;;;4.60;2.50;;;;;;;19.99;63.83;101951.81;5037710;23;20052;-96
2023/06/27 08:23:58;;;;;;;6.30;2.35;;;;;;;19.96;65.03;101960.63;4990668;28;20054;-96
2023/06/27 08:26:24;;;;;;;8.13;2.80;;;;;;;20.00;65.26;101955.34;4999155;28;20026;-96
2023/06/27 08:29:00;;;;;;;;;;;;;;;;;;;;;
2023/06/27 08:31:28;;;;;;;7.32;3.58;;;;;;;20.13;63.91;101967.69;5004932;28;20033;-96
2023/06/27 08:33:56;;;;;;;6.70;2.95;;;;;;;20.11;64.41;101958.88;4989768;28;20062;-96
2023/06/27 08:36:22;;;;;;;8.60;2.90;;;;;;;20.19;63.64;101957.16;4982688;28;20564;-96
2023/06/27 08:38:53;;;;;;;10.55;2.97;;;;;;;20.25;61.85;101953.63;4984971;28;20141;-96
2023/06/27 08:41:29;;;;;;;8.90;2.72;;;;;;;20.22;61.60;101959.78;4991295;28;20038;-96
2023/06/27 08:43:55;;;;;;;6.43;2.90;;;;;;;20.16;60.27;101954.50;4984331;28;20026;-96
2023/06/27 08:46:25;;;;;;;5.30;2.50;;;;;;;20.07;62.31;101949.16;4988697;28;20021;-94
2023/06/27 08:48:55;;;;;;;7.10;2.90;;;;;;;20.13;64.10;101951.81;4994055;28;20025;-96
2023/06/27 08:51:25;;;;;;;8.07;2.80;;;;;;;20.24;60.83;101957.16;4993640;28;20113;-95
2023/06/27 08:54:06;;;;;;;6.38;2.70;;;;;;;20.26;61.04;101945.69;4987818;28;20030;-96
2023/06/27 08:56:41;;;;;;;5.22;2.47;;;;;;;20.21;61.78;101950.06;4987122;28;21186;-96
2023/06/27 08:59:21;;;;;;;7.63;2.50;;;;;;;20.18;63.52;101943.91;4993369;28;20129;-96
2023/06/27 09:02:03;;;;;;;7.68;3.00;;;;;;;20.23;64.49;101950.94;4982988;28;20027;-96
2023/06/27 09:04:35;;;;;;;6.85;3.03;;;;;;;20.30;64.49;101949.19;4998907;28;20044;-96
2023/06/27 09:07:03;;;;;;;6.43;2.67;;;;;;;20.38;63.55;101946.56;4992624;28;20060;-96
2023/06/27 09:09:36;;;;;;;4.93;2.40;;;;;;;20.36;62.13;101940.38;4994254;28;20566;-96
2023/06/27 09:12:03;;;;;;;7.80;2.50;;;;;;;20.33;62.91;101947.47;4991360;28;20583;-96
2023/06/27 09:14:31;;;;;;;6.07;2.30;;;;;;;20.36;62.32;101945.69;4985602;28;20068;-96
2023/06/27 09:16:57;;;;;;;8.20;3.08;;;;;;;20.33;61.77;101949.19;4997122;23;20042;-55
2023/06/27 09:19:22;;;;;;;7.47;2.30;;;;;;;20.31;60.38;101950.97;5071712;23;20409;-55
2023/06/27 09:21:50;;;;;;;6.55;2.50;;;;;;;20.30;59.74;101949.19;5154953;23;20054;-56
2023/06/27 09:24:22;;;;;;;5.82;2.20;;;;;;;20.23;59.80;101945.66;5061757;23;22722;-56
2023/06/27 09:26:47;;;;;;;6.78;2.30;;;;;;;20.22;59.53;101946.56;4971399;28;20039;-55
2023/06/27 09:29:13;;;;;;;5.70;2.40;;;;;;;20.18;59.09;101944.78;4975153;28;20037;-56
2023/06/27 09:31:39;;;;;;;3.97;1.90;;;;;;;20.18;58.67;101944.78;4975436;28;20054;-56
2023/06/27 09:34:05;;;;;;;6.20;2.22;;;;;;;20.21;58.71;101950.06;4974178;28;20177;-56
2023/06/27 09:36:38;;;;;;;6.05;2.20;;;;;;;20.24;61.94;101958.03;4973061;28;20477;-56
2023/06/27 09:39:08;;;;;;;7.45;2.47;;;;;;;20.39;61.28;101951.88;4973129;28;20038;-55
2023/06/27 09:41:42;;;;;;;5.93;2.08;;;;;;;20.57;60.49;101952.75;4975915;28;20035;-56
2023/06/27 09:44:31;;;;;;;4.47;1.90;;;;;;;20.85;59.31;101951.00;4975320;28;20054;-55
2023/06/27 09:46:56;;;;;;;6.15;2.28;;;;;;;20.97;58.29;101947.44;4973691;28;20109;-56
2023/06/27 09:49:23;;;;;;;5.63;1.90;;;;;;;21.00;59.30;101950.97;4970551;28;20034;-57
2023/06/27 09:51:49;;;;;;;7.50;2.05;;;;;;;21.13;60.10;101958.88;4975373;28;20026;-56
2023/06/27 09:54:21;;;;;;;5.47;1.80;;;;;;;21.24;56.92;101954.44;4973950;28;20442;-56
2023/06/27 09:56:49;;;;;;;6.00;1.63;;;;;;;21.34;51.83;101960.59;4976185;28;20089;-56
2023/06/27 09:59:16;;;;;;;4.47;1.58;;;;;;;21.32;53.96;101962.34;4973539;28;20533;-55
2023/06/27 10:01:42;;;;;;;6.15;1.77;;;;;;;21.34;52.85;101958.81;4974485;28;20034;-56
2023/06/27 10:04:08;;;;;;;5.45;2.08;;;;;;;21.58;52.91;101956.09;4975041;28;20448;-56
2023/06/27 10:06:34;;;;;;;4.43;1.88;;;;;;;21.80;53.15;101951.59;4976151;28;20405;-56
2023/06/27 10:09:00;;;;;;;5.75;1.60;;;;;;;21.87;51.94;101953.34;4974924;28;20485;-56
2023/06/27 10:11:26;;;;;;;4.07;1.45;;;;;;;21.78;52.24;101950.72;4974542;28;20038;-56
2023/06/27 10:13:52;;;;;;;3.35;1.60;;;;;;;21.86;52.28;101951.56;4975795;28;20030;-56
2023/06/27 10:16:18;;;;;;;3.67;1.42;;;;;;;22.12;51.58;101954.03;4975132;28;20045;-56
2023/06/27 10:18:44;;;;;;;5.22;1.45;;;;;;;22.09;49.05;101951.41;4969515;28;20029;-57
2023/06/27 10:21:10;;;;;;;3.88;1.60;;;;;;;22.13;49.01;101954.91;4972692;28;20034;-57
2023/06/27 10:23:39;;;;;;;3.88;1.40;;;;;;;22.12;46.49;101954.03;4973764;28;20037;-55
2023/06/27 10:26:04;;;;;;;3.67;1.40;;;;;;;22.00;46.04;101954.09;4972885;28;20050;-56
2023/06/27 10:28:33;;;;;;;5.80;1.60;;;;;;;21.99;47.78;101953.25;4972537;28;20030;-56
2023/06/27 10:30:58;;;;;;;3.40;1.30;;;;;;;22.11;48.95;101962.03;4975771;28;20018;-56
2023/06/27 10:33:31;;;;;;;3.08;1.27;;;;;;;22.24;46.08;101963.69;4975842;28;20061;-56
2023/06/27 10:36:07;;;;;;;4.47;1.38;;;;;;;22.35;46.52;101961.88;4975111;28;20023;-56
2023/06/27 10:38:40;;;;;;;4.82;1.35;;;;;;;22.57;48.66;101956.41;4973300;28;20034;-56
2023/06/27 10:41:12;;;;;;;3.63;1.33;;;;;;;22.83;50.62;101947.31;4973910;28;20106;-56
2023/06/27 10:43:55;;;;;;;4.60;1.40;;;;;;;23.07;48.99;101947.06;4974951;28;20030;-56
2023/06/27 10:46:21;;;;;;;3.63;1.50;;;;;;;23.31;47.53;101947.69;4976175;28;20046;-57
2023/06/27 10:48:48;;;;;;;5.03;1.45;;;;;;;23.49;45.42;101953.69;4978003;28;20034;-57
2023/06/27 10:51:19;;;;;;;3.30;1.30;;;;;;;23.25;45.19;101955.75;4979613;28;20026;-56
2023/06/27 10:54:07;;;;;;;4.15;1.23;;;;;;;23.06;44.10;101950.59;4979780;28;20041;-56
2023/06/27 10:57:06;;;;;;;3.90;1.38;;;;;;;22.90;45.29;101944.56;4979500;28;20045;-56
2023/06/27 10:59:33;;;;;;;4.25;1.27;;;;;;;23.08;44.00;101937.28;4957687;28;20054;-56
2023/06/27 11:02:00;;;;;;;4.40;1.40;;;;;;;23.17;43.05;101944.31;4977959;28;20041;-56
2023/06/27 11:04:39;;;;;;;2.95;1.30;;;;;;;23.22;42.84;101942.50;4979307;28;20048;-56
2023/06/27 11:07:07;;;;;;;3.03;1.33;;;;;;;23.36;42.79;101953.84;4979009;28;20490;-56
2023/06/27 11:09:35;;;;;;;6.30;1.40;;;;;;;23.40;43.20;101955.53;4977736;28;20026;-56
2023/06/27 11:12:14;;;;;;;4.03;1.63;;;;;;;23.18;45.34;101944.28;4979252;28;20034;-56
2023/06/27 11:14:41;;;;;;;3.75;1.27;;;;;;;23.19;45.31;101947.84;4979024;28;20026;-56
2023/06/27 11:17:07;;;;;;;4.03;1.33;;;;;;;23.24;43.02;101943.34;4978858;28;20041;-56
2023/06/27 11:19:34;;;;;;;3.40;1.30;;;;;;;23.25;40.89;101947.78;4977538;28;20409;-56
2023/06/27 11:22:00;;;;;;;5.13;1.40;;;;;;;23.37;44.53;101934.31;4978249;28;20119;-56
2023/06/27 11:24:27;;;;;;;6.13;1.60;;;;;;;23.47;42.70;101948.38;4977799;28;20054;-55
2023/06/27 11:26:53;;;;;;;3.80;1.40;;;;;;;23.26;42.28;101950.41;4960878;28;20034;-56